createdAt,value
2022-12-17T00:01:46.375Z,-3273.30
2022-12-17T00:04:31.988Z,-3273.30
2022-12-17T00:07:17.631Z,-3273.30
2022-12-17T00:10:03.016Z,-3273.30
2022-12-17T00:12:48.495Z,-3273.30
2022-12-17T00:15:33.858Z,-3273.30
2022-12-17T00:18:24.716Z,-3273.30
2022-12-17T00:21:13.744Z,-3273.30
2022-12-17T00:23:59.654Z,-3273.20
2022-12-17T00:26:45.420Z,-3273.30
2022-12-17T00:29:30.867Z,-3273.30
2022-12-17T00:32:16.713Z,-3273.30
2022-12-17T00:35:03.847Z,-3273.30
2022-12-17T00:37:49.235Z,-3273.30
2022-12-17T00:40:34.996Z,-3273.10
2022-12-17T00:43:21.275Z,-3273.00
2022-12-17T00:46:08.562Z,-3272.80
2022-12-17T00:48:54.408Z,-3272.90
2022-12-17T00:51:43.234Z,-3272.80
2022-12-17T00:54:28.681Z,-3272.80
2022-12-17T00:57:29.201Z,-3272.70
2022-12-17T01:00:16.578Z,-3272.70
2022-12-17T01:03:02.156Z,-3272.70
2022-12-17T01:05:46.811Z,-3272.60
2022-12-17T01:08:34.354Z,-3272.50
2022-12-17T01:11:20.520Z,-3272.60
2022-12-17T01:14:06.990Z,-3272.50
2022-12-17T01:16:53.131Z,-3272.50
2022-12-17T01:19:41.840Z,-3272.50
2022-12-17T01:22:27.223Z,-3272.40
2022-12-17T01:25:16.494Z,-3272.40
2022-12-17T01:28:01.947Z,-3272.40
2022-12-17T01:31:02.039Z,-3272.50
2022-12-17T01:33:47.516Z,-3272.50
2022-12-17T01:36:32.873Z,-3272.50
2022-12-17T01:39:18.762Z,-3272.50
2022-12-17T01:42:05.707Z,-3272.50
2022-12-17T01:45:12.767Z,-3272.30
2022-12-17T01:48:01.865Z,-3272.40
2022-12-17T01:50:51.333Z,-3272.40
2022-12-17T01:53:40.874Z,-3272.50
2022-12-17T01:56:28.739Z,-3272.50
2022-12-17T01:59:16.268Z,-3272.40
2022-12-17T02:02:01.999Z,-3272.40
2022-12-17T02:04:47.867Z,-3272.30
2022-12-17T02:07:51.901Z,-3272.30
2022-12-17T02:10:42.904Z,-3272.30
2022-12-17T02:13:34.395Z,-3272.30
2022-12-17T02:16:27.434Z,-3272.30
2022-12-17T02:19:18.612Z,-3272.30
2022-12-17T02:22:09.497Z,-3272.20
2022-12-17T02:25:05.912Z,-3272.20
2022-12-17T02:27:53.423Z,-3272.10
2022-12-17T02:30:38.977Z,-3272.10
2022-12-17T02:33:25.820Z,-3272.00
2022-12-17T02:36:16.904Z,-3272.00
2022-12-17T02:39:02.724Z,-3272.00
2022-12-17T02:41:59.990Z,-3271.90
2022-12-17T02:44:48.090Z,-3271.80
2022-12-17T02:47:34.959Z,-3271.80
2022-12-17T02:50:20.582Z,-3271.90
2022-12-17T02:53:07.689Z,-3271.90
2022-12-17T02:55:53.757Z,-3271.90
2022-12-17T02:58:39.671Z,-3271.90
2022-12-17T03:01:27.015Z,-3271.90
2022-12-17T03:04:12.488Z,-3271.80
2022-12-17T03:06:58.269Z,-3271.80
2022-12-17T03:09:46.152Z,-3271.70
2022-12-17T03:12:32.018Z,-3271.70
2022-12-17T03:15:17.702Z,-3271.70
2022-12-17T03:18:04.788Z,-3271.80
2022-12-17T03:20:50.615Z,-3271.90
2022-12-17T03:23:41.834Z,-3271.80
2022-12-17T03:26:27.482Z,-3271.80
2022-12-17T03:29:13.173Z,-3271.90
2022-12-17T03:31:58.692Z,-3271.90
2022-12-17T03:34:45.692Z,-3271.90
2022-12-17T03:37:31.145Z,-3271.80
2022-12-17T03:40:18.821Z,-3271.80
2022-12-17T03:43:04.361Z,-3271.70
2022-12-17T03:45:50.190Z,-3271.60
2022-12-17T03:48:35.880Z,-3271.60
2022-12-17T03:51:23.022Z,-3271.60
2022-12-17T03:54:08.501Z,-3271.60
2022-12-17T03:56:53.805Z,-3271.50
2022-12-17T03:59:39.552Z,-3271.40
2022-12-17T04:02:25.300Z,-3271.40
2022-12-17T04:05:15.107Z,-3271.50
2022-12-17T04:08:05.267Z,-3271.50
2022-12-17T04:10:50.756Z,-3271.60
2022-12-17T04:13:40.479Z,-3271.60
2022-12-17T04:16:26.985Z,-3271.60
2022-12-17T04:19:12.715Z,-3271.70
2022-12-17T04:22:03.917Z,-3271.70
2022-12-17T04:24:49.930Z,-3271.70
2022-12-17T04:27:49.770Z,-3271.70
2022-12-17T04:30:35.620Z,-3271.50
2022-12-17T04:33:21.061Z,-3271.40
2022-12-17T04:36:06.357Z,-3271.30
2022-12-17T04:38:52.325Z,-3271.20
2022-12-17T04:41:39.108Z,-3271.30
2022-12-17T04:44:24.445Z,-3271.40
2022-12-17T04:47:10.139Z,-3271.40
2022-12-17T04:49:55.625Z,-3271.30
2022-12-17T04:52:41.345Z,-3271.20
2022-12-17T04:55:27.492Z,-3271.30
2022-12-17T04:58:19.883Z,-3271.30
2022-12-17T05:01:10.883Z,-3271.30
2022-12-17T05:03:56.648Z,-3271.40
2022-12-17T05:06:42.312Z,-3271.30
2022-12-17T05:09:28.222Z,-3271.40
2022-12-17T05:12:19.419Z,-3271.40
2022-12-17T05:15:06.472Z,-3271.30
2022-12-17T05:17:51.726Z,-3271.30
2022-12-17T05:20:37.220Z,-3271.30
2022-12-17T05:23:27.052Z,-3271.30
2022-12-17T05:26:21.311Z,-3271.30
2022-12-17T05:29:21.729Z,-3271.30
2022-12-17T05:32:09.468Z,-3271.30
2022-12-17T05:34:55.358Z,-3271.20
2022-12-17T05:37:42.686Z,-3271.20
2022-12-17T05:40:29.051Z,-3271.30
2022-12-17T05:43:15.416Z,-3271.30
2022-12-17T05:46:00.169Z,-3271.20
2022-12-17T05:48:59.065Z,-3271.10
2022-12-17T05:51:44.434Z,-3271.10
2022-12-17T05:54:29.857Z,-3271.10
2022-12-17T05:57:15.385Z,-3271.20
2022-12-17T06:00:00.615Z,-3271.20
2022-12-17T06:02:46.155Z,-3271.00
2022-12-17T06:05:33.398Z,-3271.00
2022-12-17T06:08:22.536Z,-3271.10
2022-12-17T06:11:08.041Z,-3271.10
2022-12-17T06:13:53.327Z,-3271.10
2022-12-17T06:16:39.585Z,-3271.10
2022-12-17T06:19:24.948Z,-3271.10
2022-12-17T06:22:12.117Z,-3271.10
2022-12-17T06:24:57.589Z,-3271.00
2022-12-17T06:27:42.871Z,-3271.10
2022-12-17T06:30:29.754Z,-3271.10
2022-12-17T06:33:23.173Z,-3271.10
2022-12-17T06:36:07.342Z,-3271.10
2022-12-17T06:38:53.982Z,-3271.00
2022-12-17T06:41:39.787Z,-3271.00
2022-12-17T06:44:25.579Z,-3271.00
2022-12-17T06:47:11.495Z,-3271.00
2022-12-17T06:50:01.225Z,-3271.10
2022-12-17T06:52:47.303Z,-3271.00
2022-12-17T06:55:34.500Z,-3271.00
2022-12-17T06:58:20.164Z,-3271.00
2022-12-17T07:01:05.882Z,-3270.90
2022-12-17T07:03:51.606Z,-3270.90
2022-12-17T07:06:37.296Z,-3270.90
2022-12-17T07:09:23.097Z,-3270.80
2022-12-17T07:12:09.942Z,-3270.80
2022-12-17T07:14:55.463Z,-3270.70
2022-12-17T07:17:42.113Z,-3270.80
2022-12-17T07:20:30.782Z,-3270.80
2022-12-17T07:23:16.330Z,-3270.80
2022-12-17T07:26:01.858Z,-3271.00
2022-12-17T07:28:48.778Z,-3271.00
2022-12-17T07:31:34.263Z,-3271.00
2022-12-17T07:34:19.566Z,-3271.00
2022-12-17T07:37:05.021Z,-3271.00
2022-12-17T07:39:50.160Z,-3271.00
2022-12-17T07:42:35.610Z,-3271.10
2022-12-17T07:45:23.226Z,-3271.10
2022-12-17T07:48:11.323Z,-3271.10
2022-12-17T07:50:57.049Z,-3271.10
2022-12-17T07:53:42.434Z,-3271.20
2022-12-17T07:56:27.607Z,-3271.20
2022-12-17T07:59:12.545Z,-3271.30
2022-12-17T08:01:59.672Z,-3271.30
2022-12-17T08:04:45.144Z,-3271.30
2022-12-17T08:07:30.570Z,-3271.30
2022-12-17T08:10:16.150Z,-3271.30
2022-12-17T08:13:14.198Z,-3271.30
2022-12-17T08:16:00.575Z,-3271.20
2022-12-17T08:18:47.610Z,-3271.10
2022-12-17T08:21:33.573Z,-3271.00
2022-12-17T08:24:19.165Z,-3271.00
2022-12-17T08:27:07.151Z,-3271.00
2022-12-17T08:29:52.729Z,-3271.20
2022-12-17T08:32:38.966Z,-3271.30
2022-12-17T08:35:27.020Z,-3271.30
2022-12-17T08:38:12.437Z,-3271.50
2022-12-17T08:40:57.327Z,-3271.70
2022-12-17T08:43:42.672Z,-3271.80
2022-12-17T08:46:28.146Z,-3271.90
2022-12-17T08:49:13.806Z,-3272.00
2022-12-17T08:52:01.334Z,-3272.10
2022-12-17T08:54:47.204Z,-3272.20
2022-12-17T08:57:32.784Z,-3272.30
2022-12-17T09:00:18.525Z,-3272.40
2022-12-17T09:03:04.406Z,-3272.60
2022-12-17T09:05:50.350Z,-3272.80
2022-12-17T09:08:37.127Z,-3273.00
2022-12-17T09:11:22.729Z,-3273.00
2022-12-17T09:14:08.159Z,-3273.20
2022-12-17T09:17:02.025Z,-3273.30
2022-12-17T09:19:47.856Z,-3273.40
2022-12-17T09:22:33.538Z,-3273.60
2022-12-17T09:25:20.435Z,-3273.60
2022-12-17T09:28:05.651Z,-3273.60
2022-12-17T09:30:51.367Z,-3273.80
2022-12-17T09:33:37.940Z,-3273.90
2022-12-17T09:36:24.631Z,-3274.10
2022-12-17T09:39:10.395Z,-3274.20
2022-12-17T09:42:05.713Z,-3274.30
2022-12-17T09:45:00.128Z,-3274.40
2022-12-17T09:47:57.875Z,-3274.40
2022-12-17T09:50:43.139Z,-3274.50
2022-12-17T09:53:40.381Z,-3274.60
2022-12-17T09:56:29.660Z,-3274.70
2022-12-17T09:59:17.278Z,-3274.80
2022-12-17T10:02:03.323Z,-3274.90
2022-12-17T10:04:53.806Z,-3274.80
2022-12-17T10:07:42.520Z,-3274.50
2022-12-17T10:10:36.990Z,-3274.50
2022-12-17T10:13:29.591Z,-3274.70
2022-12-17T10:16:16.597Z,-3274.60
2022-12-17T10:19:03.076Z,-3274.70
2022-12-17T10:21:49.735Z,-3274.60
2022-12-17T10:24:35.318Z,-3274.50
2022-12-17T10:27:28.290Z,-3274.00
2022-12-17T10:30:13.851Z,-3274.10
2022-12-17T10:33:00.857Z,-3274.20
2022-12-17T10:35:54.686Z,-3274.30
2022-12-17T10:38:42.485Z,-3274.20
2022-12-17T10:41:39.234Z,-3274.10
2022-12-17T10:44:39.573Z,-3274.30
2022-12-17T10:47:32.130Z,-3274.30
2022-12-17T10:50:20.837Z,-3274.40
2022-12-17T10:53:08.877Z,-3274.60
2022-12-17T10:55:54.633Z,-3274.50
2022-12-17T10:58:43.789Z,-3274.70
2022-12-17T11:01:36.596Z,-3274.30
2022-12-17T11:04:22.524Z,-3274.30
2022-12-17T11:07:13.806Z,-3274.20
2022-12-17T11:10:09.023Z,-3273.70
2022-12-17T11:13:00.462Z,-3274.00
2022-12-17T11:15:52.499Z,-3274.00
2022-12-17T11:18:41.378Z,-3274.20
2022-12-17T11:21:31.069Z,-3274.60
2022-12-17T11:24:22.784Z,-3274.60
2022-12-17T11:27:12.643Z,-3274.40
2022-12-17T11:29:58.348Z,-3274.50
2022-12-17T11:33:03.124Z,-3274.40
2022-12-17T11:36:00.597Z,-3274.90
2022-12-17T11:38:54.643Z,-3275.10
2022-12-17T11:41:53.085Z,-3275.40
2022-12-17T11:44:53.256Z,-3275.50
2022-12-17T11:47:48.353Z,-3275.40
2022-12-17T11:50:43.878Z,-3275.20
2022-12-17T11:53:48.327Z,-3275.40
2022-12-17T11:56:40.347Z,-3275.60
2022-12-17T11:59:42.347Z,-3275.20
2022-12-17T12:02:39.811Z,-3275.60
2022-12-17T12:05:35.973Z,-3275.60
2022-12-17T12:08:27.911Z,-3275.50
2022-12-17T12:11:20.436Z,-3275.70
2022-12-17T12:14:24.609Z,-3275.30
2022-12-17T12:17:26.748Z,-3275.40
2022-12-17T12:20:21.040Z,-3275.70
2022-12-17T12:23:16.259Z,-3275.70
2022-12-17T12:26:11.361Z,-3275.80
2022-12-17T12:29:04.163Z,-3276.00
2022-12-17T12:31:55.302Z,-3275.70
2022-12-17T12:34:45.860Z,-3275.60
2022-12-17T12:37:33.990Z,-3275.60
2022-12-17T12:40:27.001Z,-3275.10
2022-12-17T12:43:19.318Z,-3275.00
2022-12-17T12:46:13.565Z,-3275.10
2022-12-17T12:49:04.922Z,-3274.90
2022-12-17T12:51:54.770Z,-3275.10
2022-12-17T12:54:46.447Z,-3275.00
2022-12-17T12:57:53.213Z,-3274.90
2022-12-17T13:00:57.543Z,-3274.50
2022-12-17T13:03:46.425Z,-3274.30
2022-12-17T13:06:35.809Z,-3274.50
2022-12-17T13:09:20.769Z,-3274.50
2022-12-17T13:11:51.029Z,-3274.60
2022-12-17T13:14:23.821Z,-3274.80
2022-12-17T13:16:56.855Z,-3274.60
2022-12-17T13:19:38.187Z,-3274.40
2022-12-17T13:22:28.046Z,-3274.40
2022-12-17T13:25:10.981Z,-3274.50
2022-12-17T13:27:41.813Z,-3274.50
2022-12-17T13:30:22.481Z,-3274.50
2022-12-17T13:33:04.799Z,-3274.60
2022-12-17T13:35:40.473Z,-3274.80
2022-12-17T13:38:17.230Z,-3274.70
2022-12-17T13:41:08.037Z,-3274.80
2022-12-17T13:43:44.430Z,-3274.80
2022-12-17T13:46:24.756Z,-3274.60
2022-12-17T13:48:59.255Z,-3274.50
2022-12-17T13:51:30.269Z,-3274.50
2022-12-17T13:54:01.035Z,-3274.60
2022-12-17T13:56:33.961Z,-3274.80
2022-12-17T13:59:09.127Z,-3275.00
2022-12-17T14:01:46.929Z,-3274.80
2022-12-17T14:04:23.579Z,-3274.70
2022-12-17T14:06:54.865Z,-3274.80
2022-12-17T14:09:28.685Z,-3274.70
2022-12-17T14:12:17.424Z,-3274.70
2022-12-17T14:14:50.408Z,-3274.80
2022-12-17T14:17:22.327Z,-3274.80
2022-12-17T14:19:59.091Z,-3274.70
2022-12-17T14:22:36.288Z,-3274.50
2022-12-17T14:25:07.974Z,-3274.40
2022-12-17T14:27:40.197Z,-3274.30
2022-12-17T14:30:25.638Z,-3274.40
2022-12-17T14:32:55.455Z,-3274.40
2022-12-17T14:35:30.309Z,-3274.60
2022-12-17T14:38:00.309Z,-3274.50
2022-12-17T14:40:30.596Z,-3274.50
2022-12-17T14:43:03.735Z,-3274.60
2022-12-17T14:45:33.433Z,-3274.70
2022-12-17T14:48:07.674Z,-3274.70
2022-12-17T14:50:40.649Z,-3274.70
2022-12-17T14:53:26.913Z,-3274.70
2022-12-17T14:55:58.299Z,-3274.80
2022-12-17T14:58:30.778Z,-3274.80
2022-12-17T15:01:08.075Z,-3274.90
2022-12-17T15:03:56.935Z,-3274.80
2022-12-17T15:06:30.567Z,-3275.00
2022-12-17T15:09:01.307Z,-3274.70
2022-12-17T15:11:31.343Z,-3274.50
2022-12-17T15:14:02.926Z,-3274.50
2022-12-17T15:16:33.120Z,-3274.70
2022-12-17T15:19:03.188Z,-3274.70
2022-12-17T15:21:33.226Z,-3274.80
2022-12-17T15:24:03.654Z,-3274.60
2022-12-17T15:26:33.964Z,-3274.50
2022-12-17T15:29:05.603Z,-3274.40
2022-12-17T15:31:35.988Z,-3274.30
2022-12-17T15:34:06.119Z,-3274.40
2022-12-17T15:36:36.291Z,-3274.30
2022-12-17T15:39:06.251Z,-3274.40
2022-12-17T15:41:52.157Z,-3274.40
2022-12-17T15:44:21.643Z,-3274.30
2022-12-17T15:46:49.817Z,-3274.30
2022-12-17T15:49:17.985Z,-3274.50
2022-12-17T15:51:46.134Z,-3274.50
2022-12-17T15:54:14.246Z,-3274.50
2022-12-17T15:56:42.455Z,-3274.50
2022-12-17T15:59:10.685Z,-3274.50
2022-12-17T16:01:40.591Z,-3274.40
2022-12-17T16:04:15.944Z,-3274.50
2022-12-17T16:06:46.133Z,-3274.60
2022-12-17T16:09:14.594Z,-3274.50
2022-12-17T16:11:42.717Z,-3274.50
2022-12-17T16:14:10.791Z,-3274.40
2022-12-17T16:16:40.307Z,-3274.30
2022-12-17T16:19:08.525Z,-3274.40
2022-12-17T16:21:38.052Z,-3274.40
2022-12-17T16:24:10.765Z,-3274.50
2022-12-17T16:26:39.201Z,-3274.40
2022-12-17T16:29:07.323Z,-3274.40
2022-12-17T16:31:35.566Z,-3274.40
2022-12-17T16:34:09.300Z,-3274.40
2022-12-17T16:36:39.835Z,-3274.40
2022-12-17T16:39:08.253Z,-3274.40
2022-12-17T16:41:36.361Z,-3274.40
2022-12-17T16:44:05.866Z,-3274.30
2022-12-17T16:46:35.883Z,-3274.20
2022-12-17T16:49:08.610Z,-3274.30
2022-12-17T16:51:37.048Z,-3274.50
2022-12-17T16:54:07.272Z,-3274.50
2022-12-17T16:56:39.926Z,-3274.50
2022-12-17T16:59:09.297Z,-3274.40
2022-12-17T17:01:38.461Z,-3274.40
2022-12-17T17:04:09.890Z,-3274.40
2022-12-17T17:06:40.870Z,-3274.30
2022-12-17T17:09:09.927Z,-3274.40
2022-12-17T17:11:38.453Z,-3274.20
2022-12-17T17:14:07.825Z,-3274.00
2022-12-17T17:16:36.704Z,-3274.10
2022-12-17T17:19:05.655Z,-3274.00
2022-12-17T17:21:36.118Z,-3273.90
2022-12-17T17:24:07.565Z,-3273.80
2022-12-17T17:26:36.384Z,-3273.80
2022-12-17T17:29:05.710Z,-3273.80
2022-12-17T17:32:08.289Z,-3273.80
2022-12-17T17:34:22.907Z,-3273.90
2022-12-17T17:36:52.494Z,-3273.80
2022-12-17T17:39:20.679Z,-3273.70
2022-12-17T17:41:49.047Z,-3273.70
2022-12-17T17:44:17.962Z,-3273.60
2022-12-17T17:46:46.164Z,-3273.60
2022-12-17T17:49:14.453Z,-3273.60
2022-12-17T17:54:34.441Z,-3273.70
2022-12-17T17:57:02.562Z,-3273.70
2022-12-17T17:59:33.627Z,-3273.80
2022-12-17T18:02:03.726Z,-3273.80
2022-12-17T18:04:32.830Z,-3273.70
2022-12-17T18:09:50.503Z,-3273.70
2022-12-17T18:12:35.646Z,-3273.60
2022-12-17T18:15:19.104Z,-3273.40
2022-12-17T18:17:50.488Z,-3273.40
2022-12-17T18:20:18.978Z,-3273.30
2022-12-17T18:22:47.438Z,-3273.40
2022-12-17T18:25:17.811Z,-3273.30
2022-12-17T18:27:46.207Z,-3273.30
2022-12-17T18:30:16.356Z,-3273.20
2022-12-17T18:32:45.001Z,-3273.20
2022-12-17T18:35:13.213Z,-3273.30
2022-12-17T18:37:41.463Z,-3273.50
2022-12-17T18:40:13.393Z,-3273.50
2022-12-17T18:43:00.385Z,-3273.50
2022-12-17T18:45:28.507Z,-3273.60
2022-12-17T18:47:56.642Z,-3273.60
2022-12-17T18:50:32.777Z,-3273.50
2022-12-17T18:53:00.938Z,-3273.50
2022-12-17T18:55:29.081Z,-3273.50
2022-12-17T18:57:58.602Z,-3273.30
2022-12-17T19:00:26.825Z,-3273.40
2022-12-17T19:02:55.141Z,-3273.50
2022-12-17T19:05:26.533Z,-3273.50
2022-12-17T19:07:54.753Z,-3273.50
2022-12-17T19:10:27.710Z,-3273.50
2022-12-17T19:12:55.918Z,-3273.40
2022-12-17T19:15:25.589Z,-3273.30
2022-12-17T19:17:53.738Z,-3273.30
2022-12-17T19:20:22.293Z,-3273.40
2022-12-17T19:22:52.345Z,-3273.40
2022-12-17T19:25:20.853Z,-3273.40
2022-12-17T19:27:49.036Z,-3273.40
2022-12-17T19:30:17.300Z,-3273.40
2022-12-17T19:32:46.831Z,-3273.30
2022-12-17T19:35:15.031Z,-3273.30
2022-12-17T19:37:43.255Z,-3273.40
2022-12-17T19:40:12.559Z,-3273.40
2022-12-17T19:42:40.637Z,-3273.40
2022-12-17T19:45:09.682Z,-3273.30
2022-12-17T19:47:37.864Z,-3273.30
2022-12-17T19:50:08.141Z,-3273.20
2022-12-17T19:52:36.220Z,-3273.00
2022-12-17T19:55:04.689Z,-3273.10
2022-12-17T19:57:34.880Z,-3273.10
2022-12-17T20:00:03.049Z,-3273.20
2022-12-17T20:02:33.185Z,-3273.10
2022-12-17T20:05:01.852Z,-3273.10
2022-12-17T20:07:31.381Z,-3273.10
2022-12-17T20:09:59.558Z,-3273.20
2022-12-17T20:12:27.813Z,-3273.10
2022-12-17T20:14:55.985Z,-3273.20
2022-12-17T20:17:26.027Z,-3273.20
2022-12-17T20:19:55.110Z,-3273.10
2022-12-17T20:22:25.972Z,-3273.10
2022-12-17T20:24:55.536Z,-3273.20
2022-12-17T20:27:23.742Z,-3273.00
2022-12-17T20:29:51.825Z,-3273.00
2022-12-17T20:32:21.598Z,-3273.00
2022-12-17T20:34:49.816Z,-3272.90
2022-12-17T20:37:17.941Z,-3272.90
2022-12-17T20:39:46.143Z,-3273.00
2022-12-17T20:42:17.709Z,-3273.00
2022-12-17T20:44:50.115Z,-3272.80
2022-12-17T20:47:21.462Z,-3272.80
2022-12-17T20:49:49.558Z,-3272.70
2022-12-17T20:52:17.754Z,-3272.70
2022-12-17T20:54:45.993Z,-3272.70
2022-12-17T20:57:15.521Z,-3272.60
2022-12-17T20:59:43.733Z,-3272.70
2022-12-17T21:02:11.980Z,-3272.50
2022-12-17T21:04:40.211Z,-3272.40
2022-12-17T21:07:08.415Z,-3272.30
2022-12-17T21:09:36.487Z,-3272.40
2022-12-17T21:12:04.999Z,-3272.40
2022-12-17T21:14:35.858Z,-3272.40
2022-12-17T21:17:05.235Z,-3272.40
2022-12-17T21:19:33.642Z,-3272.40
2022-12-17T21:22:02.061Z,-3272.30
2022-12-17T21:24:30.170Z,-3272.30
2022-12-17T21:26:58.378Z,-3272.10
2022-12-17T21:29:26.509Z,-3272.10
2022-12-17T21:31:56.264Z,-3272.10
2022-12-17T21:34:25.309Z,-3272.10
2022-12-17T21:36:53.769Z,-3272.10
2022-12-17T21:39:22.249Z,-3272.00
2022-12-17T21:42:04.805Z,-3271.70
2022-12-17T21:44:33.144Z,-3271.80
2022-12-17T21:47:03.356Z,-3271.80
2022-12-17T21:49:31.602Z,-3271.80
2022-12-17T21:52:00.733Z,-3271.90
2022-12-17T21:54:28.926Z,-3271.90
2022-12-17T21:56:57.108Z,-3272.00
2022-12-17T21:59:25.262Z,-3272.10
2022-12-17T22:01:57.299Z,-3272.10
2022-12-17T22:04:27.638Z,-3272.10
2022-12-17T22:07:04.228Z,-3272.10
2022-12-17T22:09:41.502Z,-3272.10
2022-12-17T22:12:54.865Z,-3272.00
2022-12-17T22:15:23.139Z,-3272.00
2022-12-17T22:17:55.958Z,-3272.00
2022-12-17T22:20:26.055Z,-3272.00
2022-12-17T22:22:54.165Z,-3272.10
2022-12-17T22:25:22.482Z,-3272.10
2022-12-17T22:27:50.708Z,-3272.00
2022-12-17T22:30:36.883Z,-3272.00
2022-12-17T22:33:37.622Z,-3272.00
2022-12-17T22:38:17.894Z,-3271.80
2022-12-17T22:41:07.782Z,-3271.70
2022-12-17T22:44:35.922Z,-3271.50
2022-12-17T22:44:53.378Z,-3271.60
2022-12-17T22:47:23.139Z,-3271.80
2022-12-17T22:49:51.634Z,-3271.70
2022-12-17T22:52:21.908Z,-3271.70
2022-12-17T22:54:50.428Z,-3271.80
2022-12-17T22:57:35.376Z,-3271.80
2022-12-17T23:00:09.424Z,-3271.80
2022-12-17T23:02:38.105Z,-3271.70
2022-12-17T23:05:07.011Z,-3271.70
2022-12-17T23:07:36.557Z,-3271.70
2022-12-17T23:10:05.322Z,-3271.70
2022-12-17T23:12:51.680Z,-3271.60
2022-12-17T23:15:21.228Z,-3271.40
2022-12-17T23:17:49.377Z,-3271.40
2022-12-17T23:20:18.032Z,-3271.40
2022-12-17T23:22:47.671Z,-3271.30
2022-12-17T23:25:16.596Z,-3271.20
2022-12-17T23:27:45.575Z,-3271.20
2022-12-17T23:30:15.153Z,-3271.20
2022-12-17T23:32:43.406Z,-3270.90
2022-12-17T23:35:12.318Z,-3270.90
2022-12-17T23:37:41.507Z,-3270.80
2022-12-17T23:40:14.568Z,-3270.80
2022-12-17T23:42:42.897Z,-3270.70
2022-12-17T23:45:12.152Z,-3270.70
2022-12-17T23:47:41.229Z,-3270.70
2022-12-17T23:50:10.959Z,-3270.80
2022-12-17T23:52:39.752Z,-3270.80
2022-12-17T23:55:08.599Z,-3270.90
2022-12-17T23:57:38.187Z,-3271.00
